KMIA/MIA METAR and TAF weather

Enter ICAO airport designator
Station Type Date Time Source
KMIA METAR 2019/04/18 14:53 UTC NOAA

KMIA 181453Z 12013KT 10SM SCT026 SCT075 28/21 A3003 RMK AO2 SLP168 T02780211 53009


Station Type Date Time Source
KMIA Decoded METAR 2019/04/18 14:53 UTC NOAA

MIAMI INTERNATIONAL AIRPORT , FL, United States (KMIA) 25-47N 080-19W 8M
Apr 18, 2019 - 10:53 AM EDT / 2019.04.18 1453 UTC
Wind: from the ESE (120 degrees) at 15 MPH (13 KT):0
Visibility: 10 mile(s):0
Sky conditions: partly cloudy
Temperature: 82.0 F (27.8 C)
Dew Point: 70.0 F (21.1 C)
Relative Humidity: 66%
Pressure (altimeter): 30.03 in. Hg (1016 hPa)
Pressure tendency: 0.03 inches (0.9 hPa) higher than three hours ago
ob: KMIA 181453Z 12013KT 10SM SCT026 SCT075 28/21 A3003 RMK AO2 SLP168 T02780211 53009
cycle: 15

Station Type Date Time Source
KMIA TAF 2019/04/18 15:09 UTC NOAA

TAF
AMD KMIA 181505Z 1815/1918 13012KT P6SM SCT030
FM181600 15015G25KT P6SM SCT025 SCT050
FM190300 12011KT P6SM SCT030 BKN060 BKN250
FM191500 17015KT P6SM SCT030 BKN050 BKN250

Example: see airport list